Los Angeles, California
Traffic Map
Current Weather Conditions
Los Angeles, California
Clear
Clear
56°
Feels Like: 56°
Wind Chill: 56° Ceiling: Unl
Heat Index: 56° Visibility: 8mi
Dew Point: 49° Wind: 0mph
Humidity: 77% Direction: ° ()
Pressure: 29.89in Gusts: 0mph
Raw Report DataKCQT 290747Z AUTO 00000KT 8SM CLR 13/09 A2989 RMK AO2 SLP119 T01330094 402720117
Traffic Incident Summary
Active as of:
Severity:
Category:
InformationThere was an issue retrieving the traffic information for this location. Please try a different location or try again shortly.
Advertisements
Track Severe Weather on mobile